Time;durP1;ratioP1;P1;durP2;ratioP2;P2;SDS_P1;SDS_P2;PMS_P1;PMS_P2;Temp;Humidity;BMP_temperature;BMP_pressure;BME280_temperature;BME280_humidity;BME280_pressure;Samples;Min_cycle;Max_cycle;Signal;HPM_P1;HPM_P2
2021/03/23 00:00:31;;;;;;;6.53;1.77;;;6.20;99.90;;;;;;5070129;28;20094;-46
2021/03/23 00:03:06;;;;;;;4.47;1.70;;;6.20;99.90;;;;;;5068793;28;20017;-46
2021/03/23 00:05:31;;;;;;;3.90;1.10;;;6.30;99.90;;;;;;5069838;28;20033;-46
2021/03/23 00:07:57;;;;;;;5.75;1.65;;;6.20;99.90;;;;;;5069601;28;20489;-46
2021/03/23 00:10:26;;;;;;;4.75;1.52;;;6.20;99.90;;;;;;5068602;28;20405;-45
2021/03/23 00:12:52;;;;;;;4.07;2.58;;;6.20;99.90;;;;;;5069689;28;20028;-47
2021/03/23 00:15:18;;;;;;;1.58;1.10;;;6.20;99.90;;;;;;5066965;28;20171;-45
2021/03/23 00:17:44;;;;;;;4.38;1.60;;;6.20;99.90;;;;;;5069440;28;20032;-46
2021/03/23 00:20:12;;;;;;;3.97;1.30;;;6.20;99.90;;;;;;5070351;28;20020;-46
2021/03/23 00:22:38;;;;;;;1.83;1.13;;;6.20;99.90;;;;;;5069941;28;20021;-46
2021/03/23 00:25:07;;;;;;;5.72;1.40;;;6.20;99.90;;;;;;5067733;28;20025;-48
2021/03/23 00:27:34;;;;;;;2.10;1.33;;;6.20;99.90;;;;;;5069755;28;20016;-46
2021/03/23 00:29:59;;;;;;;4.60;1.40;;;6.20;99.90;;;;;;5069189;28;20039;-47
2021/03/23 00:32:25;;;;;;;4.05;1.27;;;6.20;99.90;;;;;;5069640;28;20025;-45
2021/03/23 00:34:50;;;;;;;1.67;0.90;;;6.20;99.90;;;;;;5068634;28;20119;-46
2021/03/23 00:37:16;;;;;;;3.05;1.00;;;6.20;99.90;;;;;;5069663;28;20104;-46
2021/03/23 00:39:42;;;;;;;1.52;0.88;;;6.20;99.90;;;;;;5068892;28;20362;-45
2021/03/23 00:42:08;;;;;;;3.33;1.25;;;6.20;99.90;;;;;;5069749;28;20028;-46
2021/03/23 00:44:34;;;;;;;1.00;0.90;;;6.20;99.90;;;;;;5069569;28;20025;-46
2021/03/23 00:47:00;;;;;;;3.10;0.60;;;6.20;99.90;;;;;;5068440;28;20527;-46
2021/03/23 00:49:26;;;;;;;2.50;0.60;;;6.20;99.90;;;;;;5069258;28;20032;-44
2021/03/23 00:51:53;;;;;;;1.88;0.68;;;6.20;99.90;;;;;;5068901;28;20024;-45
2021/03/23 00:54:19;;;;;;;2.33;0.75;;;6.20;99.90;;;;;;5068449;28;20100;-45
2021/03/23 00:56:45;;;;;;;1.08;0.68;;;6.20;99.90;;;;;;5068677;28;20115;-45
2021/03/23 00:59:10;;;;;;;1.33;0.73;;;6.20;99.90;;;;;;5069101;28;20410;-45
2021/03/23 01:01:36;;;;;;;1.42;0.95;;;6.20;99.90;;;;;;5068648;28;20016;-45
2021/03/23 01:04:01;;;;;;;0.82;0.70;;;6.20;99.90;;;;;;5069187;28;20398;-46
2021/03/23 01:06:27;;;;;;;4.18;0.80;;;6.20;99.90;;;;;;5068544;28;20039;-46
2021/03/23 01:08:52;;;;;;;1.55;0.60;;;6.20;99.90;;;;;;5067318;28;20393;-46
2021/03/23 01:11:18;;;;;;;2.33;0.75;;;6.20;99.90;;;;;;5067856;28;20074;-45
2021/03/23 01:13:43;;;;;;;3.47;0.90;;;6.20;99.90;;;;;;5068651;28;20485;-45
2021/03/23 01:16:09;;;;;;;2.58;1.13;;;6.20;99.90;;;;;;5068801;28;20456;-48
2021/03/23 01:18:35;;;;;;;1.95;1.35;;;6.20;99.90;;;;;;5068554;28;20021;-47
2021/03/23 01:21:01;;;;;;;1.20;0.80;;;6.10;99.90;;;;;;5069268;28;20032;-46
2021/03/23 01:23:27;;;;;;;3.33;0.90;;;6.10;99.90;;;;;;5069180;28;20059;-46
2021/03/23 01:25:52;;;;;;;4.90;0.90;;;6.10;99.90;;;;;;5066946;28;20245;-45
2021/03/23 01:28:18;;;;;;;3.50;0.88;;;6.10;99.90;;;;;;5067391;28;20474;-46
2021/03/23 01:30:43;;;;;;;2.25;0.80;;;6.00;99.90;;;;;;5068280;28;20072;-49
2021/03/23 01:33:09;;;;;;;5.90;1.15;;;6.10;99.90;;;;;;5068860;28;20075;-46
2021/03/23 01:35:35;;;;;;;2.58;1.10;;;6.10;99.90;;;;;;5067951;28;20105;-46
2021/03/23 01:38:00;;;;;;;4.20;0.80;;;6.10;99.90;;;;;;5068214;28;20033;-45
2021/03/23 01:40:28;;;;;;;2.17;1.20;;;6.00;99.90;;;;;;5064622;28;20021;-45
2021/03/23 01:42:59;;;;;;;4.60;1.10;;;6.00;99.90;;;;;;5048372;28;20087;-46
2021/03/23 01:45:28;;;;;;;;;;;6.00;99.90;;;;;;5048089;28;20230;-46
2021/03/23 01:47:55;;;;;;;4.10;1.13;;;6.00;99.90;;;;;;5047161;28;19904;-46
2021/03/23 01:50:22;;;;;;;4.05;2.17;;;6.00;99.90;;;;;;5047907;28;20025;-45
2021/03/23 01:52:59;;;;;;;2.33;1.20;;;6.00;99.90;;;;;;5048404;28;20108;-45
2021/03/23 01:55:25;;;;;;;6.18;1.10;;;6.00;99.90;;;;;;5046980;28;20527;-45
2021/03/23 01:57:52;;;;;;;4.20;1.38;;;5.90;99.90;;;;;;5047641;28;20029;-45
2021/03/23 02:00:18;;;;;;;2.22;1.25;;;5.80;99.90;;;;;;5047848;28;20036;-45
2021/03/23 02:02:44;;;;;;;1.90;1.70;;;5.80;99.90;;;;;;5046989;28;20511;-44
2021/03/23 02:05:24;;;;;;;2.00;1.15;;;5.70;99.90;;;;;;5047066;28;20028;-47
2021/03/23 02:07:50;;;;;;;;;;;5.60;99.90;;;;;;5048442;28;20021;-45
2021/03/23 02:10:16;;;;;;;1.80;1.13;;;5.60;99.90;;;;;;5047470;28;20388;-46
2021/03/23 02:12:43;;;;;;;5.18;1.60;;;5.60;99.90;;;;;;5063208;28;20052;-45
2021/03/23 02:15:10;;;;;;;4.70;1.65;;;5.60;99.90;;;;;;5065939;28;20028;-45
2021/03/23 02:17:38;;;;;;;2.67;1.30;;;5.60;99.90;;;;;;5068185;28;20111;-48
2021/03/23 02:20:18;;;;;;;4.72;1.50;;;5.60;99.90;;;;;;5067595;28;20017;-46
2021/03/23 02:22:46;;;;;;;7.05;2.70;;;5.50;99.90;;;;;;5067360;28;20104;-46
2021/03/23 02:25:16;;;;;;;7.28;1.30;;;5.50;99.90;;;;;;5067053;28;20037;-46
2021/03/23 02:27:41;;;;;;;2.97;1.30;;;5.50;99.90;;;;;;5067346;28;20067;-46
2021/03/23 02:30:14;;;;;;;6.90;1.52;;;5.60;99.90;;;;;;5066358;28;20071;-46
2021/03/23 02:32:39;;;;;;;2.45;1.33;;;5.60;99.90;;;;;;5067450;28;20101;-46
2021/03/23 02:35:06;;;;;;;3.42;1.40;;;5.60;99.90;;;;;;5066951;28;20022;-46
2021/03/23 02:37:31;;;;;;;3.45;1.27;;;5.60;99.90;;;;;;5067652;28;20027;-46
2021/03/23 02:39:56;;;;;;;4.30;1.25;;;5.60;99.90;;;;;;5067557;28;20029;-46
2021/03/23 02:42:22;;;;;;;4.60;1.23;;;5.60;99.90;;;;;;5067346;28;20453;-45
2021/03/23 02:44:48;;;;;;;5.43;1.50;;;5.60;99.90;;;;;;5067098;28;20040;-46
2021/03/23 02:47:19;;;;;;;3.28;1.20;;;5.50;99.90;;;;;;5066007;28;20048;-47
2021/03/23 02:49:44;;;;;;;5.85;1.40;;;5.60;99.90;;;;;;5067153;28;20036;-45
2021/03/23 02:52:11;;;;;;;5.28;1.48;;;5.60;99.90;;;;;;5067186;28;20040;-45
2021/03/23 02:54:38;;;;;;;3.67;1.30;;;5.50;99.90;;;;;;5063010;28;20076;-46
2021/03/23 02:57:04;;;;;;;4.65;1.40;;;5.50;99.90;;;;;;5064496;28;20047;-46
2021/03/23 02:59:30;;;;;;;3.03;1.20;;;5.50;99.90;;;;;;5066010;28;20509;-45
2021/03/23 03:01:55;;;;;;;3.85;1.50;;;5.50;99.90;;;;;;5066441;28;20036;-45
2021/03/23 03:04:21;;;;;;;2.53;1.70;;;5.50;99.90;;;;;;5065961;28;20025;-44
2021/03/23 03:06:47;;;;;;;3.53;1.70;;;5.50;99.90;;;;;;5065988;28;20020;-46
2021/03/23 03:09:12;;;;;;;4.55;1.65;;;5.50;99.90;;;;;;5066877;28;20318;-45
2021/03/23 03:11:38;;;;;;;5.07;1.55;;;5.50;99.90;;;;;;5065937;28;20028;-46
2021/03/23 03:14:04;;;;;;;3.22;1.63;;;5.50;99.90;;;;;;5065949;28;20021;-45
2021/03/23 03:16:29;;;;;;;3.13;1.48;;;5.50;99.90;;;;;;5065623;28;20021;-47
2021/03/23 03:18:54;;;;;;;2.10;1.20;;;5.50;99.90;;;;;;5066372;28;20037;-46
2021/03/23 03:21:20;;;;;;;4.30;1.65;;;5.40;99.90;;;;;;5065540;28;20033;-46
2021/03/23 03:23:47;;;;;;;1.67;1.10;;;5.50;99.90;;;;;;5066445;28;21043;-48
2021/03/23 03:26:13;;;;;;;1.92;1.30;;;5.50;99.90;;;;;;5063469;28;20324;-46
2021/03/23 03:28:38;;;;;;;2.20;1.20;;;5.50;99.90;;;;;;5066211;28;20031;-45
2021/03/23 03:31:05;;;;;;;2.05;1.15;;;5.50;99.90;;;;;;5066492;28;20225;-47
2021/03/23 03:33:31;;;;;;;2.55;1.35;;;5.50;99.90;;;;;;5066207;28;20259;-46
2021/03/23 03:35:57;;;;;;;2.65;1.20;;;5.50;99.90;;;;;;5062799;28;20021;-45
2021/03/23 03:38:25;;;;;;;4.43;1.10;;;5.40;99.90;;;;;;5066378;28;20484;-46
2021/03/23 03:40:55;;;;;;;3.03;1.38;;;5.50;99.90;;;;;;5064402;28;20099;-49
2021/03/23 03:43:23;;;;;;;2.28;1.38;;;5.40;99.90;;;;;;5066403;28;20021;-47
2021/03/23 03:45:49;;;;;;;2.85;1.50;;;5.40;99.90;;;;;;5063033;28;20024;-46
2021/03/23 03:48:15;;;;;;;3.92;1.60;;;5.40;99.90;;;;;;5066344;28;20117;-49
2021/03/23 03:50:41;;;;;;;6.80;1.65;;;5.50;99.90;;;;;;5068290;28;20028;-46
2021/03/23 03:53:07;;;;;;;5.40;1.88;;;5.50;99.90;;;;;;5069930;28;20021;-46
2021/03/23 03:55:37;;;;;;;3.88;1.60;;;5.50;99.90;;;;;;5068833;28;20020;-45
2021/03/23 03:58:04;;;;;;;4.13;2.10;;;5.50;99.90;;;;;;5069058;28;20024;-46
2021/03/23 04:00:31;;;;;;;3.42;2.28;;;5.50;99.90;;;;;;5067161;28;20540;-48
2021/03/23 04:02:58;;;;;;;5.30;2.28;;;5.50;99.90;;;;;;5069227;28;20021;-45
2021/03/23 04:05:28;;;;;;;3.75;2.63;;;5.60;99.90;;;;;;5066420;28;20109;-45
2021/03/23 04:07:54;;;;;;;11.82;4.90;;;5.60;99.90;;;;;;5069897;28;20492;-45
2021/03/23 04:10:20;;;;;;;8.35;4.47;;;5.50;99.90;;;;;;5070124;28;20271;-44
2021/03/23 04:12:47;;;;;;;11.35;5.25;;;5.50;99.90;;;;;;5067825;28;20356;-45
2021/03/23 04:15:33;;;;;;;11.32;5.82;;;5.50;99.90;;;;;;5069206;28;20154;-45
2021/03/23 04:18:00;;;;;;;11.70;5.65;;;5.50;99.90;;;;;;5069920;28;20024;-45
2021/03/23 04:20:27;;;;;;;14.18;7.88;;;5.50;99.90;;;;;;5069779;28;20054;-45
2021/03/23 04:22:52;;;;;;;12.77;6.30;;;5.50;99.90;;;;;;5069855;28;20016;-48
2021/03/23 04:25:21;;;;;;;14.50;7.03;;;5.50;99.90;;;;;;5069381;28;20036;-45
2021/03/23 04:27:47;;;;;;;15.00;7.82;;;5.50;99.90;;;;;;5068746;28;20033;-46
2021/03/23 04:30:13;;;;;;;12.82;7.00;;;5.50;99.90;;;;;;5069589;28;20040;-45
2021/03/23 04:32:39;;;;;;;18.13;7.25;;;5.40;99.90;;;;;;5070003;28;20031;-46
2021/03/23 04:35:08;;;;;;;15.32;7.43;;;5.40;99.90;;;;;;5068726;28;20420;-45
2021/03/23 04:37:34;;;;;;;15.23;6.75;;;5.40;99.90;;;;;;5069638;28;20028;-44
2021/03/23 04:40:04;;;;;;;14.13;6.97;;;5.40;99.90;;;;;;5069943;28;20058;-45
2021/03/23 04:42:29;;;;;;;12.27;7.23;;;5.40;99.90;;;;;;5068962;28;20461;-46
2021/03/23 04:44:55;;;;;;;12.75;6.22;;;5.40;99.90;;;;;;5069583;28;20112;-47
2021/03/23 04:47:20;;;;;;;10.45;5.82;;;5.40;99.90;;;;;;5070025;28;20060;-45
2021/03/23 04:49:46;;;;;;;12.52;7.40;;;5.40;99.90;;;;;;5069970;28;20036;-46
2021/03/23 04:52:11;;;;;;;17.33;6.70;;;5.40;99.90;;;;;;5068691;28;20085;-46
2021/03/23 04:54:37;;;;;;;12.25;5.65;;;5.40;99.90;;;;;;5067603;28;20066;-46
2021/03/23 04:57:03;;;;;;;12.32;6.75;;;5.40;99.90;;;;;;5069108;28;20017;-46
2021/03/23 04:59:29;;;;;;;10.88;6.60;;;5.40;99.90;;;;;;5069801;28;20031;-46
2021/03/23 05:01:56;;;;;;;13.52;6.47;;;5.30;99.90;;;;;;5069505;28;20043;-48
2021/03/23 05:04:21;;;;;;;10.32;6.10;;;5.40;99.90;;;;;;5070027;28;20172;-46
2021/03/23 05:06:47;;;;;;;15.95;6.65;;;5.40;99.90;;;;;;5069735;28;20110;-46
2021/03/23 05:09:12;;;;;;;13.20;6.43;;;5.40;99.90;;;;;;5070203;28;20144;-46
2021/03/23 05:11:38;;;;;;;13.55;6.25;;;5.30;99.90;;;;;;5069219;28;20024;-45
2021/03/23 05:14:07;;;;;;;18.38;5.93;;;5.30;99.90;;;;;;5069475;28;20039;-46
2021/03/23 05:16:33;;;;;;;12.23;6.32;;;5.30;99.90;;;;;;5069268;28;20032;-45
2021/03/23 05:18:59;;;;;;;12.43;6.05;;;5.30;99.90;;;;;;5069289;28;20029;-45
2021/03/23 05:21:26;;;;;;;13.60;5.82;;;5.30;99.90;;;;;;5069371;28;20502;-44
2021/03/23 05:23:56;;;;;;;12.05;7.03;;;5.20;99.90;;;;;;5069098;28;20028;-45
2021/03/23 05:26:21;;;;;;;12.77;5.82;;;5.20;99.90;;;;;;5068463;28;20620;-46
2021/03/23 05:28:47;;;;;;;10.00;5.65;;;5.20;99.90;;;;;;5067226;28;20025;-44
2021/03/23 05:31:14;;;;;;;11.70;6.05;;;5.20;99.90;;;;;;5068690;28;20039;-44
2021/03/23 05:33:40;;;;;;;9.30;6.00;;;5.10;99.90;;;;;;5068486;28;20480;-45
2021/03/23 05:36:06;;;;;;;13.80;6.03;;;5.10;99.90;;;;;;5068153;28;20032;-44
2021/03/23 05:38:32;;;;;;;10.10;5.93;;;5.10;99.90;;;;;;5068867;28;20248;-44
2021/03/23 05:41:05;;;;;;;13.85;7.25;;;5.10;99.90;;;;;;5067707;28;20028;-44
2021/03/23 05:43:31;;;;;;;10.95;6.50;;;5.10;99.90;;;;;;5068615;28;20031;-47
2021/03/23 05:46:17;;;;;;;11.93;7.20;;;5.10;99.90;;;;;;5067766;28;20115;-44
2021/03/23 05:49:10;;;;;;;9.88;5.65;;;5.10;99.90;;;;;;5068487;28;20445;-45
2021/03/23 05:51:43;;;;;;;14.50;6.65;;;5.10;99.90;;;;;;5069207;28;20070;-45
2021/03/23 05:54:29;;;;;;;13.77;5.72;;;5.10;99.90;;;;;;5068901;28;20075;-45
2021/03/23 05:56:58;;;;;;;10.57;6.68;;;5.10;99.90;;;;;;5066691;28;20047;-47
2021/03/23 05:59:33;;;;;;;10.60;5.70;;;5.10;99.90;;;;;;5065854;28;20017;-45
2021/03/23 06:02:05;;;;;;;9.27;5.57;;;5.10;99.90;;;;;;5067211;28;20039;-44
2021/03/23 06:04:51;;;;;;;20.27;6.50;;;5.10;99.90;;;;;;5068476;28;20020;-45
2021/03/23 06:07:17;;;;;;;9.52;5.85;;;5.10;99.90;;;;;;5066952;28;20621;-44
2021/03/23 06:09:44;;;;;;;11.50;5.78;;;5.10;99.90;;;;;;5068381;28;20063;-45
2021/03/23 06:12:16;;;;;;;10.50;5.70;;;5.10;99.90;;;;;;5067336;28;20024;-45
2021/03/23 06:15:16;;;;;;;11.27;5.30;;;5.10;99.90;;;;;;5068064;28;20032;-46
2021/03/23 06:17:58;;;;;;;10.60;5.18;;;5.10;99.90;;;;;;5068463;28;20556;-45
2021/03/23 06:20:46;;;;;;;10.88;5.30;;;5.10;99.90;;;;;;5065901;28;20052;-48
2021/03/23 06:23:26;;;;;;;13.50;6.05;;;5.20;99.90;;;;;;5069328;28;20100;-44
2021/03/23 06:26:03;;;;;;;13.48;6.68;;;5.20;99.90;;;;;;5068201;28;20024;-45
2021/03/23 06:28:41;;;;;;;14.98;7.00;;;5.20;99.90;;;;;;5068556;28;20020;-45
2021/03/23 06:31:37;;;;;;;14.70;8.32;;;5.30;99.90;;;;;;5068364;28;20106;-44
2021/03/23 06:34:04;;;;;;;18.95;9.18;;;5.30;99.90;;;;;;5066165;28;20041;-44
2021/03/23 06:36:31;;;;;;;15.35;7.10;;;5.40;99.90;;;;;;5072754;28;20051;-44
2021/03/23 06:38:57;;;;;;;16.45;8.50;;;5.40;99.90;;;;;;5070547;28;20218;-46
2021/03/23 06:41:31;;;;;;;18.05;8.82;;;5.50;99.90;;;;;;5078599;28;20024;-44
2021/03/23 06:44:14;;;;;;;14.35;8.32;;;5.50;99.90;;;;;;5084510;28;20035;-44
2021/03/23 06:46:43;;;;;;;15.07;8.23;;;5.50;99.90;;;;;;5067114;28;20024;-44
2021/03/23 06:49:28;;;;;;;10.38;7.18;;;5.50;99.90;;;;;;5069044;28;20123;-45
2021/03/23 06:51:53;;;;;;;15.13;7.50;;;5.60;99.90;;;;;;5065027;28;20028;-44
2021/03/23 06:54:21;;;;;;;12.23;6.72;;;5.60;99.90;;;;;;5067257;28;20017;-44
2021/03/23 06:56:57;;;;;;;12.05;6.10;;;5.60;99.90;;;;;;5066757;28;20072;-50
2021/03/23 06:59:23;;;;;;;16.23;7.00;;;5.60;99.90;;;;;;5067257;28;20033;-46
2021/03/23 07:01:56;;;;;;;11.82;6.63;;;5.60;99.90;;;;;;5067054;28;20436;-45
2021/03/23 07:04:39;;;;;;;12.93;7.00;;;5.60;99.90;;;;;;5067101;28;20020;-45
2021/03/23 07:07:22;;;;;;;13.82;6.15;;;5.60;99.90;;;;;;5065644;28;20407;-45
2021/03/23 07:10:18;;;;;;;16.70;7.20;;;5.50;99.90;;;;;;5068108;28;20033;-45
2021/03/23 07:12:45;;;;;;;14.75;7.18;;;5.60;99.90;;;;;;5065502;28;20044;-45
2021/03/23 07:15:25;;;;;;;15.75;7.20;;;5.70;99.90;;;;;;5066810;28;20039;-46
2021/03/23 07:17:54;;;;;;;21.45;7.47;;;5.60;99.90;;;;;;5065629;28;20071;-45
2021/03/23 07:20:43;;;;;;;9.55;5.95;;;5.60;99.90;;;;;;5067578;28;20075;-45
2021/03/23 07:23:36;;;;;;;13.35;7.45;;;5.60;99.90;;;;;;5066672;28;20278;-45
2021/03/23 07:26:26;;;;;;;11.82;6.18;;;5.70;99.90;;;;;;5067711;28;20107;-45
2021/03/23 07:28:53;;;;;;;11.60;6.70;;;5.70;99.90;;;;;;5070859;28;20036;-45
2021/03/23 07:31:32;;;;;;;13.43;6.97;;;5.70;99.90;;;;;;5070029;28;20033;-44
2021/03/23 07:34:12;;;;;;;10.43;6.32;;;5.80;99.90;;;;;;5071895;28;20032;-44
2021/03/23 07:36:42;;;;;;;9.83;5.97;;;5.80;99.90;;;;;;5071203;28;20055;-45
2021/03/23 07:39:30;;;;;;;11.60;6.22;;;5.80;99.90;;;;;;5071635;28;20501;-44
2021/03/23 07:42:03;;;;;;;13.25;5.80;;;5.80;99.90;;;;;;5066086;28;20169;-45
2021/03/23 07:44:40;;;;;;;9.95;5.78;;;5.80;99.90;;;;;;5050429;28;20131;-44
2021/03/23 07:47:35;;;;;;;11.00;6.68;;;5.90;99.90;;;;;;5069871;28;20195;-45
2021/03/23 07:50:43;;;;;;;9.77;6.53;;;5.90;99.90;;;;;;5071120;28;20366;-45
2021/03/23 07:53:31;;;;;;;11.73;6.45;;;6.00;99.90;;;;;;5028722;28;20041;-45
2021/03/23 07:56:13;;;;;;;13.55;7.38;;;5.90;99.90;;;;;;5028271;28;20037;-46
2021/03/23 07:59:01;;;;;;;11.75;6.90;;;6.00;99.90;;;;;;5055042;28;20459;-45
2021/03/23 08:01:47;;;;;;;10.32;6.60;;;6.00;99.90;;;;;;5070958;28;20105;-46
2021/03/23 08:04:16;;;;;;;11.73;6.93;;;6.00;99.90;;;;;;5071454;28;20111;-45
2021/03/23 08:06:53;;;;;;;16.75;6.93;;;6.00;99.90;;;;;;5070619;28;20035;-44
2021/03/23 08:09:49;;;;;;;17.35;7.07;;;6.10;99.90;;;;;;5071175;28;20389;-45
2021/03/23 08:12:37;;;;;;;16.38;8.25;;;6.10;99.90;;;;;;5067057;28;20012;-45
2021/03/23 08:15:26;;;;;;;13.60;6.70;;;6.20;99.90;;;;;;5068910;28;20128;-48
2021/03/23 08:18:00;;;;;;;11.52;7.13;;;6.30;99.90;;;;;;5069668;28;20024;-47
2021/03/23 08:20:44;;;;;;;14.07;7.78;;;6.30;99.90;;;;;;5071486;28;20024;-46
2021/03/23 08:23:21;;;;;;;15.38;7.38;;;6.30;99.90;;;;;;5071120;28;20020;-47
2021/03/23 08:26:12;;;;;;;17.23;6.32;;;6.30;99.90;;;;;;5070720;28;20023;-47
2021/03/23 08:28:50;;;;;;;11.68;7.40;;;6.30;99.90;;;;;;5070985;28;20024;-47
2021/03/23 08:31:23;;;;;;;12.45;8.27;;;6.30;99.90;;;;;;5070440;28;20025;-46
2021/03/23 08:33:54;;;;;;;16.05;7.28;;;6.30;99.90;;;;;;5070677;28;20596;-47
2021/03/23 08:36:34;;;;;;;12.40;7.38;;;6.40;99.90;;;;;;5069388;28;20028;-46
2021/03/23 08:39:14;;;;;;;13.37;6.30;;;6.40;99.90;;;;;;5070838;28;20032;-46
2021/03/23 08:42:19;;;;;;;14.43;6.97;;;6.50;99.90;;;;;;5070439;28;20490;-47
2021/03/23 08:44:49;;;;;;;10.50;7.07;;;6.50;99.90;;;;;;5065064;28;20039;-46
2021/03/23 08:47:37;;;;;;;16.13;7.28;;;6.60;99.90;;;;;;5048991;28;20112;-47
2021/03/23 08:50:15;;;;;;;14.13;7.38;;;6.60;99.90;;;;;;5050613;28;20075;-46
2021/03/23 08:52:49;;;;;;;12.73;7.60;;;6.60;99.90;;;;;;5070149;28;20426;-47
2021/03/23 08:55:25;;;;;;;14.93;7.07;;;6.70;99.90;;;;;;5069814;28;20328;-50
2021/03/23 08:58:04;;;;;;;11.63;7.28;;;6.70;99.90;;;;;;5070287;28;20028;-47
2021/03/23 09:00:40;;;;;;;16.02;6.97;;;6.70;99.90;;;;;;5068581;28;20028;-46
2021/03/23 09:03:11;;;;;;;13.45;7.35;;;6.90;99.90;;;;;;5069996;28;20026;-47
2021/03/23 09:05:51;;;;;;;10.65;5.97;;;6.90;99.90;;;;;;5065718;28;20102;-47
2021/03/23 09:08:32;;;;;;;18.10;7.75;;;7.00;99.90;;;;;;5061612;28;20028;-47
2021/03/23 09:11:05;;;;;;;12.88;6.60;;;7.00;99.90;;;;;;5058688;28;20040;-48
2021/03/23 09:13:33;;;;;;;12.52;7.45;;;7.10;99.90;;;;;;5068021;28;20025;-48
2021/03/23 09:16:00;;;;;;;12.13;6.68;;;7.20;99.90;;;;;;5066287;28;20029;-46
2021/03/23 09:18:29;;;;;;;13.65;7.15;;;7.20;99.90;;;;;;5067154;28;20028;-47
2021/03/23 09:21:08;;;;;;;16.88;7.57;;;7.30;99.90;;;;;;5068802;28;20036;-46
2021/03/23 09:23:38;;;;;;;14.45;7.05;;;7.30;99.90;;;;;;5068138;28;20402;-47
2021/03/23 09:26:36;;;;;;;19.73;7.35;;;7.50;99.90;;;;;;5066922;28;20119;-48
2021/03/23 09:29:29;;;;;;;17.48;7.55;;;7.50;99.90;;;;;;5066469;28;20036;-47
2021/03/23 09:31:55;;;;;;;14.98;6.90;;;7.50;99.90;;;;;;5065652;28;20040;-47
2021/03/23 09:34:59;;;;;;;14.00;7.13;;;7.60;99.90;;;;;;5067797;28;20028;-46
2021/03/23 09:37:48;;;;;;;25.17;6.38;;;7.50;99.90;;;;;;5060168;28;20044;-47
2021/03/23 09:40:40;;;;;;;16.05;7.18;;;7.50;99.90;;;;;;5047566;28;20298;-49
2021/03/23 09:43:25;;;;;;;11.70;6.53;;;7.60;99.90;;;;;;5048646;28;20017;-48
2021/03/23 09:45:56;;;;;;;10.70;6.05;;;7.60;99.90;;;;;;5047509;28;20043;-46
2021/03/23 09:48:52;;;;;;;10.63;5.82;;;7.50;99.90;;;;;;5047512;28;20040;-47
2021/03/23 09:51:42;;;;;;;19.85;6.78;;;7.60;99.90;;;;;;5048365;28;20021;-45
2021/03/23 09:54:23;;;;;;;18.05;6.68;;;7.50;99.90;;;;;;5057859;28;20024;-46
2021/03/23 09:56:50;;;;;;;14.13;6.28;;;7.50;99.90;;;;;;5065407;28;20013;-46
2021/03/23 09:59:20;;;;;;;9.98;5.30;;;7.50;99.90;;;;;;5067162;28;20225;-46
2021/03/23 10:02:17;;;;;;;15.40;6.95;;;7.60;99.90;;;;;;5065577;28;20478;-45
2021/03/23 10:04:44;;;;;;;15.48;6.18;;;7.60;99.90;;;;;;5065655;28;20056;-45
2021/03/23 10:07:28;;;;;;;14.85;6.40;;;7.60;99.90;;;;;;5065251;28;20028;-45
2021/03/23 10:09:54;;;;;;;16.90;6.00;;;7.60;99.90;;;;;;5065974;28;20028;-45
2021/03/23 10:12:31;;;;;;;16.30;6.72;;;7.60;99.90;;;;;;5067650;28;20481;-45
2021/03/23 10:14:57;;;;;;;11.88;5.85;;;7.70;99.90;;;;;;5065401;28;20028;-49
2021/03/23 10:17:28;;;;;;;14.65;6.13;;;7.70;99.90;;;;;;5067902;28;20067;-48
2021/03/23 10:19:56;;;;;;;11.68;5.68;;;7.70;99.90;;;;;;5068380;28;20028;-46
2021/03/23 10:22:31;;;;;;;12.65;7.03;;;7.80;99.90;;;;;;5067856;28;20040;-47
2021/03/23 10:24:58;;;;;;;13.93;5.75;;;7.90;99.90;;;;;;5067564;28;20024;-45
2021/03/23 10:27:33;;;;;;;11.00;6.10;;;7.90;99.90;;;;;;5067897;28;20036;-48
2021/03/23 10:29:58;;;;;;;9.73;5.93;;;7.90;99.90;;;;;;5067116;28;20040;-45
2021/03/23 10:32:52;;;;;;;9.63;5.75;;;8.00;99.90;;;;;;5067697;28;20038;-46
2021/03/23 10:35:48;;;;;;;16.85;6.63;;;8.00;99.90;;;;;;5066121;28;20043;-46
2021/03/23 10:38:17;;;;;;;10.63;6.07;;;8.10;99.90;;;;;;5063960;28;20084;-49
2021/03/23 10:40:47;;;;;;;13.00;7.10;;;8.10;99.90;;;;;;5061503;28;20021;-47
2021/03/23 10:43:32;;;;;;;19.42;8.00;;;8.10;99.90;;;;;;5064568;28;20021;-47
2021/03/23 10:45:59;;;;;;;11.45;6.15;;;8.00;99.90;;;;;;5064118;28;20013;-46
2021/03/23 10:48:27;;;;;;;10.52;6.22;;;8.20;99.90;;;;;;5066580;28;20023;-46
2021/03/23 10:51:06;;;;;;;14.57;6.40;;;8.30;99.90;;;;;;5064684;28;20025;-48
2021/03/23 10:53:32;;;;;;;12.07;6.72;;;8.20;99.90;;;;;;5064823;28;20332;-47
2021/03/23 10:55:58;;;;;;;10.95;5.80;;;8.30;99.90;;;;;;5065780;28;20112;-46
2021/03/23 10:58:29;;;;;;;11.77;6.50;;;8.20;99.90;;;;;;5066799;28;20147;-46
2021/03/23 11:01:18;;;;;;;17.17;7.00;;;8.40;99.90;;;;;;5069917;28;20194;-46
2021/03/23 11:03:45;;;;;;;13.75;6.30;;;8.30;99.90;;;;;;5067939;28;20032;-46
2021/03/23 11:06:35;;;;;;;14.93;6.72;;;8.50;99.90;;;;;;5068258;28;20025;-46
2021/03/23 11:09:02;;;;;;;11.73;6.65;;;8.50;99.90;;;;;;5069671;28;20469;-47
2021/03/23 11:11:30;;;;;;;15.52;6.30;;;8.50;99.90;;;;;;5070307;28;20454;-47
2021/03/23 11:13:55;;;;;;;11.57;6.35;;;8.50;99.90;;;;;;5069316;28;20057;-49
2021/03/23 11:16:25;;;;;;;14.38;6.68;;;8.60;99.90;;;;;;5069333;28;20063;-46
2021/03/23 11:18:51;;;;;;;14.43;6.70;;;8.70;99.90;;;;;;5070719;28;20024;-46
2021/03/23 11:21:18;;;;;;;13.40;7.05;;;8.50;99.90;;;;;;5070222;28;20161;-48
2021/03/23 11:23:47;;;;;;;13.50;7.22;;;8.60;99.90;;;;;;5070056;28;20016;-46
2021/03/23 11:26:24;;;;;;;11.27;6.75;;;8.70;99.90;;;;;;5069919;28;20117;-47
2021/03/23 11:28:56;;;;;;;13.13;6.53;;;8.60;99.90;;;;;;5069957;28;20051;-48
2021/03/23 11:31:23;;;;;;;17.10;6.53;;;8.60;99.90;;;;;;5069119;28;20028;-45
2021/03/23 11:33:49;;;;;;;11.95;6.18;;;8.70;99.90;;;;;;5066953;28;20405;-46
2021/03/23 11:36:17;;;;;;;13.20;6.20;;;8.60;99.90;;;;;;5059522;28;20031;-47
2021/03/23 11:38:42;;;;;;;12.30;6.40;;;8.70;99.90;;;;;;5070184;28;20112;-45
2021/03/23 11:41:22;;;;;;;14.70;7.43;;;8.80;99.90;;;;;;5069701;28;20115;-45
2021/03/23 11:43:51;;;;;;;11.65;6.80;;;8.90;99.90;;;;;;5068256;28;20029;-46
2021/03/23 11:46:24;;;;;;;12.05;7.22;;;8.90;99.90;;;;;;5066082;28;20086;-44
2021/03/23 11:48:56;;;;;;;19.08;7.40;;;8.90;99.90;;;;;;5073917;28;20021;-48
2021/03/23 11:51:23;;;;;;;13.00;7.20;;;9.00;99.90;;;;;;5069417;28;20024;-47
2021/03/23 11:53:49;;;;;;;15.45;7.30;;;9.00;99.90;;;;;;5069484;28;20024;-46
2021/03/23 11:56:17;;;;;;;15.60;7.45;;;8.90;99.90;;;;;;5067036;28;20089;-45
2021/03/23 11:58:43;;;;;;;12.43;6.80;;;8.90;99.90;;;;;;5068146;28;20086;-45
2021/03/23 12:01:09;;;;;;;15.48;8.07;;;8.80;99.90;;;;;;5068120;28;20107;-45
2021/03/23 12:03:35;;;;;;;16.08;7.97;;;8.90;99.90;;;;;;5069523;28;20095;-48
2021/03/23 12:06:02;;;;;;;17.30;7.65;;;8.90;99.90;;;;;;5067454;28;20013;-46
2021/03/23 12:08:42;;;;;;;17.67;8.40;;;8.90;99.90;;;;;;5069891;28;20399;-46
2021/03/23 12:11:43;;;;;;;16.52;7.40;;;9.00;99.90;;;;;;5068172;28;20036;-45
2021/03/23 12:14:18;;;;;;;16.92;8.55;;;9.20;99.90;;;;;;5068026;28;20512;-46
2021/03/23 12:17:10;;;;;;;18.13;8.25;;;9.20;99.90;;;;;;5070178;28;20032;-46
2021/03/23 12:19:40;;;;;;;15.77;8.63;;;9.20;99.90;;;;;;5069188;28;20016;-46
2021/03/23 12:22:06;;;;;;;22.75;8.77;;;9.30;99.90;;;;;;5072917;28;20043;-47
2021/03/23 12:24:32;;;;;;;20.35;9.60;;;9.20;99.90;;;;;;5076600;28;20563;-50
2021/03/23 12:26:58;;;;;;;16.73;8.40;;;9.10;99.90;;;;;;5074631;28;20048;-47
2021/03/23 12:29:24;;;;;;;15.30;8.02;;;9.00;99.90;;;;;;5068775;28;20367;-47
2021/03/23 12:31:50;;;;;;;20.30;10.00;;;9.10;99.90;;;;;;5068345;28;20028;-47
2021/03/23 12:34:16;;;;;;;17.65;9.00;;;9.10;99.90;;;;;;5069173;28;20106;-46
2021/03/23 12:36:43;;;;;;;22.40;9.55;;;9.10;99.90;;;;;;5068519;28;20028;-49
2021/03/23 12:39:10;;;;;;;20.00;9.07;;;9.10;99.90;;;;;;5067987;28;20656;-45
2021/03/23 12:41:37;;;;;;;18.17;9.27;;;9.00;99.90;;;;;;5069066;28;20035;-46
2021/03/23 12:44:03;;;;;;;18.02;9.70;;;9.10;99.90;;;;;;5067406;28;20736;-46
2021/03/23 12:46:30;;;;;;;21.92;10.23;;;9.20;99.90;;;;;;5063879;28;20123;-47
2021/03/23 12:48:58;;;;;;;19.52;10.82;;;9.20;99.90;;;;;;5069226;28;20075;-46
2021/03/23 12:51:34;;;;;;;22.70;11.48;;;9.20;99.90;;;;;;5068300;28;20025;-46
2021/03/23 12:54:00;;;;;;;18.58;10.38;;;9.20;99.90;;;;;;5067456;28;20025;-47
2021/03/23 12:56:27;;;;;;;19.20;10.85;;;9.20;99.90;;;;;;5068966;28;20504;-48
2021/03/23 12:58:52;;;;;;;20.58;10.63;;;9.40;99.90;;;;;;5068451;28;20048;-45
2021/03/23 13:01:20;;;;;;;22.70;11.23;;;9.50;99.90;;;;;;5068476;28;20489;-46
2021/03/23 13:03:46;;;;;;;23.55;11.40;;;9.40;99.90;;;;;;5068907;28;20019;-47
2021/03/23 13:06:14;;;;;;;21.85;10.95;;;9.40;99.90;;;;;;5068037;28;20025;-47
2021/03/23 13:08:40;;;;;;;22.92;10.65;;;9.50;99.90;;;;;;5068836;28;20032;-47
2021/03/23 13:11:14;;;;;;;18.35;10.70;;;9.50;99.90;;;;;;5068229;28;20105;-48
2021/03/23 13:13:51;;;;;;;18.63;10.57;;;9.50;99.90;;;;;;5066649;28;20023;-47